Alexandria, IN

10:10 PM EDT on August 24, 2016 (GMT -0400)
WA9CWE-2 500N/375E Anderson, IN | | Change Station

Elev 892 ft 40.18 °N, 85.60 °W | Updated 2 seconds ago

Light Rain
Light Rain Mist
77.5 °F
Feels Like 79 °F
N
6.0
Wind Variable Wind from SW
Gusts 16.0 mph

Today
High -- | Low -- °F
--% Chance of Precip.
Yesterday
High -- | Low -- °F
Precip. -- in
Pressure 30.02 in
Visibility 5.0 miles
Clouds Few 1400 ft
Mostly Cloudy 2400 ft
Overcast 3900 ft
Heat Index 79 °F
Dew Point 75 °F
Humidity 92%
Rainfall 0.05 in
Snow Depth Not available.
7:02 AM 8:25 PM
Waning Gibbous, 51% visible
SPECI KMIE 250207Z AUTO 33009G14KT 5SM -RA BR FEW014 BKN024 OVC039 26/23 A3002 RMK AO2 LTG DSNT NE AND E P0005 T02560233
Pressure 30.02 in
Visibility 5.0 miles
Clouds Few 1400 ft
Mostly Cloudy 2400 ft
Overcast 3900 ft
Heat Index 79 °F
Dew Point 75 °F
Humidity 92%
Rainfall 0.05 in
Snow Depth Not available.
7:02 AM 8:25 PM
Waning Gibbous, 51% visible
SPECI KMIE 250207Z AUTO 33009G14KT 5SM -RA BR FEW014 BKN024 OVC039 26/23 A3002 RMK AO2 LTG DSNT NE AND E P0005 T02560233

10-Day Weather Forecast

Almanac

Astronomy

Aug. 24, 2016 Rise Set
Actual Time
Civil Twilight
Nautical Twilight
Astronomical Twilight
Moon
Length of Visible Light
Length of Day
Tomorrow will be .
, % of the Moon is Illuminated

Today's Extremes

State Highs State Lows

Community

WunderPhotos

Upload Photos

1,934,776 photos uploaded!

WunderBlog® & News

Nearby

Air Quality

  Air Quality AQ Index Pollutant
Not available.

Snow Depth

Station Depth Elevation

Earthquake Activity

City Distance Mag. Time & Date
Minimum magnitude displayed is 2.5.

Coastal Water Temperatures

Place Temperature

Stations

Nearby Weather Stations

Station Location Temp. Windchill Dew Point Humidity Wind Precip. Elev Updated Type
                   

Watches & Warnings

There are currently no watches in effect.